createdAt,value
2023-04-15T00:08:06.456Z,7.48
2023-04-15T00:18:09.082Z,7.26
2023-04-15T00:28:13.737Z,7.03
2023-04-15T00:38:16.372Z,7.04
2023-04-15T00:48:21.289Z,6.75
2023-04-15T00:58:24.884Z,6.46
2023-04-15T01:08:29.826Z,6.37
2023-04-15T01:18:32.888Z,6.23
2023-04-15T01:28:37.617Z,6.29
2023-04-15T01:38:40.321Z,6.20
2023-04-15T01:48:44.562Z,6.12
2023-04-15T01:58:47.626Z,6.08
2023-04-15T02:08:51.594Z,5.94
2023-04-15T02:18:54.501Z,5.76
2023-04-15T02:28:58.688Z,5.93
2023-04-15T02:39:01.949Z,5.96
2023-04-15T02:49:06.479Z,5.91
2023-04-15T02:59:09.112Z,5.72
2023-04-15T03:09:13.133Z,5.55
2023-04-15T03:19:15.893Z,5.43
2023-04-15T03:29:19.860Z,5.45
2023-04-15T03:39:22.529Z,5.31
2023-04-15T03:49:26.543Z,5.07
2023-04-15T03:59:29.189Z,4.96
2023-04-15T04:09:33.232Z,5.10
2023-04-15T04:19:36.025Z,5.11
2023-04-15T04:29:40.036Z,5.16
2023-04-15T04:39:42.958Z,5.25
2023-04-15T04:49:47.017Z,5.56
2023-04-15T04:59:49.662Z,5.63
2023-04-15T05:09:53.684Z,5.68
2023-04-15T05:19:56.359Z,5.81
2023-04-15T05:30:01.915Z,6.19
2023-04-15T05:40:05.072Z,6.53
2023-04-15T05:50:10.011Z,6.85
2023-04-15T06:00:13.559Z,7.13
2023-04-15T06:10:17.672Z,7.57
2023-04-15T06:20:20.316Z,8.00
2023-04-15T06:30:24.576Z,8.44
2023-04-15T06:40:27.713Z,8.89
2023-04-15T06:50:31.880Z,9.04
2023-04-15T07:00:34.699Z,9.11
2023-04-15T07:10:38.670Z,9.44
2023-04-15T07:20:41.335Z,9.57
2023-04-15T07:30:45.652Z,9.92
2023-04-15T07:40:48.442Z,10.31
2023-04-15T07:50:52.766Z,10.56
2023-04-15T08:00:55.731Z,11.11
2023-04-15T08:11:00.310Z,11.16
2023-04-15T08:21:02.996Z,11.15
2023-04-15T08:31:07.258Z,11.09
2023-04-15T08:41:14.108Z,10.75
2023-04-15T08:51:18.755Z,10.66
2023-04-15T09:01:21.997Z,10.63
2023-04-15T09:11:26.100Z,10.74
2023-04-15T09:21:29.555Z,10.90
2023-04-15T09:31:33.692Z,11.14
2023-04-15T09:41:36.681Z,11.28
2023-04-15T09:51:42.161Z,11.33
2023-04-15T10:01:46.393Z,11.04
2023-04-15T10:11:51.521Z,11.37
2023-04-15T10:21:55.313Z,11.02
2023-04-15T10:32:00.747Z,10.81
2023-04-15T10:42:08.499Z,10.78
2023-04-15T10:52:13.313Z,10.81
2023-04-15T11:02:16.544Z,10.68
2023-04-15T11:12:20.878Z,10.68
2023-04-15T11:22:23.531Z,10.85
2023-04-15T11:32:28.148Z,10.95
2023-04-15T11:42:42.837Z,10.60
2023-04-15T11:52:57.088Z,10.55
2023-04-15T12:03:13.477Z,10.64
2023-04-15T12:13:17.697Z,10.43
2023-04-15T12:23:20.790Z,10.42
2023-04-15T12:33:24.799Z,10.42
2023-04-15T12:43:27.596Z,10.38
2023-04-15T12:53:31.588Z,10.28
2023-04-15T13:03:34.415Z,10.18
2023-04-15T13:13:38.792Z,10.43
2023-04-15T13:23:42.905Z,10.60
2023-04-15T13:33:46.915Z,10.79
2023-04-15T13:43:49.612Z,10.38
2023-04-15T13:53:53.709Z,10.36
2023-04-15T14:03:56.638Z,10.46
2023-04-15T14:14:00.716Z,10.53
2023-04-15T14:24:03.395Z,10.30
2023-04-15T14:34:07.418Z,10.40
2023-04-15T14:44:11.493Z,10.37
2023-04-15T14:54:15.590Z,10.46
2023-04-15T15:04:18.340Z,10.15
2023-04-15T15:14:22.562Z,10.33
2023-04-15T15:24:25.629Z,10.22
2023-04-15T15:34:29.673Z,10.27
2023-04-15T15:44:34.054Z,10.30
2023-04-15T15:54:38.632Z,10.57
2023-04-15T16:04:43.220Z,10.60
2023-04-15T16:14:47.710Z,10.55
2023-04-15T16:24:50.415Z,10.65
2023-04-15T16:34:54.790Z,10.49
2023-04-15T16:44:57.464Z,10.59
2023-04-15T16:55:01.764Z,10.74
2023-04-15T17:05:04.780Z,10.69
2023-04-15T17:15:10.328Z,10.60
2023-04-15T17:25:14.923Z,10.75
2023-04-15T17:35:19.476Z,10.74
2023-04-15T17:45:22.173Z,10.57
2023-04-15T17:55:26.177Z,10.65
2023-04-15T18:05:28.887Z,10.50
2023-04-15T18:15:33.707Z,10.53
2023-04-15T18:25:38.265Z,10.46
2023-04-15T18:35:42.909Z,10.46
2023-04-15T18:45:45.815Z,10.36
2023-04-15T18:55:49.824Z,10.48
2023-04-15T19:05:52.550Z,10.41
2023-04-15T19:15:56.673Z,10.36
2023-04-15T19:25:59.722Z,10.27
2023-04-15T19:36:05.553Z,10.26
2023-04-15T19:46:08.557Z,10.25
2023-04-15T19:56:12.551Z,10.11
2023-04-15T20:06:15.905Z,10.34
2023-04-15T20:16:19.971Z,10.01
2023-04-15T20:26:24.755Z,10.00
2023-04-15T20:36:28.941Z,9.97
2023-04-15T20:46:31.657Z,9.88
2023-04-15T20:56:36.227Z,9.62
2023-04-15T21:06:39.193Z,9.44
2023-04-15T21:16:43.786Z,9.25
2023-04-15T21:26:46.520Z,9.22
2023-04-15T21:36:50.599Z,9.18
2023-04-15T21:46:53.395Z,8.95
2023-04-15T21:56:57.919Z,8.80
2023-04-15T22:07:02.316Z,8.61
2023-04-15T22:17:06.579Z,8.55
2023-04-15T22:27:09.495Z,8.45
2023-04-15T22:37:13.603Z,8.33
2023-04-15T22:47:16.313Z,8.12
2023-04-15T22:57:20.348Z,8.04
2023-04-15T23:07:23.059Z,7.92
2023-04-15T23:17:27.518Z,7.86
2023-04-15T23:27:30.461Z,7.77
2023-04-15T23:37:34.478Z,7.69
2023-04-15T23:47:37.229Z,7.58
2023-04-15T23:57:42.120Z,7.43
